Terminal Aerodrome Forecast
Issued by NWS

Home | Current Version | Previous Version | Text Only | Print | Product List | Glossary On
Versions: 1 2 3 4 5 6 7 8 9 10 11 12 13 14 15 16 17 18 19 20 21 22 23 24 25 26 27 28 29 30 31 32 33 34 35 36 37 38 39 40 41 42 43
000
FTUS42 KRAH 261402 AAB
TAFINT
TAF AMD
KINT 261402Z 2614/2712 04007KT 5SM -RA BR BKN009 OVC060
      TEMPO 2614/2616 2SM RA BR BKN007 OVC018
     FM261600 32009G16KT 4SM -RA BR OVC014
     FM262200 30006KT P6SM SCT035
     FM270800 15004KT 6SM -RA BR OVC012=

USA.gov is the U.S. government's official web portal to all federal, state and local government web resources and services.